Historyczne dane pomiarowe

Dodano dane terminowe – wersja testowa.

Dane z okresu 1951-2019

Wersja bazy: 1.34 [2019-03-16, lista zmian], aktualizacja planowana na 2019-04-15

Dane meteo z obszaru Polski uzyskane na podstawie danych udostępnionych przez Instytut Meteorologii i Gospodarki Wodnej – Państwowy Instytut Badawczy.

 

Wybierz Datę:    

       

TemperaturaWilgotnośćWiatrCiśnienieOpadyŚniegCzas trwania zjawisk
 Stacja t tx tn tng RH VA  wxwx mslp ppp RRR   cm mm wxwxwxwxwxwxwx
1970-10-10 14.6 22.4 8.6--- 0.0 1.7---- 0.0------------
1970-10-09 12.6 21.2 5.7--- 1.0 1.3---- 0.0------------
1970-10-08 12.1 20.6 5.5--- 0.0 1.3---- 0.0------------
1970-10-07 10.9 16.6 7.2--- 2.7 3.0---- 0.0------------
1970-10-06 11.2 14.4 8.1--- 5.3 1.7---- 0.0------------
1970-10-05 8.5 10.3 5.9--- 7.7 2.0---- 2.5------------
1970-10-04 7.1 8.8 6.0--- 5.3 3.7---- 2.9------------
1970-10-03 7.4 11.4 5.3--- 6.7 3.0---- 0.0------------
1970-10-02 9.6 13.1 8.2--- 7.3 5.7---- 5.5------------
1970-10-01 10.3 12.8 7.5--- 8.0 3.0---- 4.0------------
1970-09-30 8.2 14.6 0.6- 78.0- 5.7 2.3---- 7.2------------
1970-09-29 4.0 12.2 -2.4- 76.5- 0.0 1.0---- 0.2------------
1970-09-28 3.0 9.5 0.1- 81.5- 0.7 2.7---- 0.0------------
1970-09-27 5.2 11.8 0.0- 84.0- 1.7 2.3---- 0.0------------
1970-09-26 5.9 9.3 3.3- 86.5- 4.0 3.3---- 0.3------------
1970-09-25 6.3 10.4 4.7- 89.0- 5.3 6.3---- 0.6------------
1970-09-24 7.1 11.2 1.4- 78.3- 4.0 5.0---- 0.0------------
1970-09-23 5.8 11.6 1.5- 84.0- 2.7 5.7---- 1.9------------
1970-09-22 7.4 13.2 6.0- 85.5- 4.3 5.7---- 1.4------------
1970-09-21 13.7 18.8 8.6- 88.5- 5.0 5.0---- 2.5------------
1970-09-20 11.6 15.5 9.0- 88.5- 4.3 3.0---- 0.0------------
1970-09-19 11.2 14.2 10.2- 92.5- 8.0 1.3---- 0.0------------
1970-09-18 11.5 16.2 5.0- 84.8- 5.0 1.3---- 1.4------------
1970-09-17 11.5 15.4 9.4- 76.0- 6.3 3.7---- 0.0------------
1970-09-16 16.8 25.8 11.1- 80.3- 2.7 5.7---- 0.0------------
1970-09-15 16.3 23.0 8.3- 76.8- 0.3 2.3---- 0.0------------
1970-09-14 13.2 20.5 6.6- 80.0- 0.7 3.0---- 0.0------------
1970-09-13 12.9 17.6 8.6- 90.8- 5.3 3.7---- 6.8------------
1970-09-12 13.0 18.9 10.9- 91.0- 5.0 3.0---- 0.5------------
1970-09-11 19.0 25.8 12.4- 86.3- 0.0 2.0---- 1.6------------
1970-09-10 18.6 25.4 12.0- 87.0- 0.7 2.3---- 0.0------------
1970-09-09 17.0 23.1 11.4- 84.3- 6.3 3.0---- 0.0------------
1970-09-08 12.4 19.0 4.4- 80.3- 0.7 2.0---- 2.8------------
1970-09-07 9.3 14.4 7.3- 85.8- 4.3 5.3---- 0.3------------
1970-09-06 10.5 14.8 8.9- 83.8- 5.7 8.7---- 11.0------------
1970-09-05 12.7 17.1 10.3- 88.3- 4.7 6.3---- 11.7------------
1970-09-04 12.9 17.2 10.3- 87.0- 5.0 4.3---- 1.4------------
1970-09-03 13.5 18.9 5.2- 80.3- 2.3 1.7---- 1.4------------
1970-09-02 12.4 18.6 9.5- 85.0- 4.7 3.7---- 1.1------------
1970-09-01 16.7 22.1 12.6- 86.0- 1.0 1.0---- 2.5------------
1970-08-31 16.0 21.2 12.8- 86.0- 3.7 1.3---- 4.3------------
1970-08-30 14.8 18.8 10.1- 93.8- 3.3 1.7---- 0.0------------
1970-08-29 16.8 23.0 9.5- 78.3- 3.7 0.7---- 0.0------------
1970-08-28 14.9 21.8 9.6- 81.8- 2.0 0.3---- 0.0------------
1970-08-27 14.4 19.3 9.7- 83.5- 2.0 3.0---- 0.0------------
1970-08-26 13.7 18.5 10.1- 83.3- 4.0 1.7---- 0.0------------
1970-08-25 15.0 17.0 12.0- 84.5- 5.0 4.7---- 0.0------------
1970-08-24 14.8 18.9 11.2- 94.8- 4.7 2.3---- 8.5------------
1970-08-23 14.5 18.4 12.8- 93.0- 7.7 1.7---- 2.7------------
1970-08-22 14.6 19.4 11.0- 83.3- 6.0 6.3---- 9.6------------
1970-08-21 15.6 20.6 11.3- 75.0- 2.0 3.7---- 0.0------------
1970-08-20 16.0 22.0 9.5- 78.8- 0.0 2.7---- 0.0------------
1970-08-19 14.2 21.0 8.2- 80.5- 3.3 1.7---- 0.0------------
1970-08-18 12.5 18.2 11.1- 88.3- 4.3 4.3---- 0.6------------
1970-08-17 17.1 23.5 12.0- 95.5- 8.0 1.3---- 41.7------------
1970-08-16 16.3 21.7 12.2- 86.8- 3.7 1.3---- 0.0------------
1970-08-15 19.5 25.8 9.7- 82.3- 3.0 3.3---- 2.4------------
1970-08-14 15.3 23.2 8.0- 77.0- 1.0 3.0---- 0.0------------
1970-08-13 13.5 19.6 9.6- 79.8- 4.0 4.3---- 0.0------------
1970-08-12 13.4 16.2 11.9- 79.3- 4.0 5.7---- 0.0------------
2299.1 ms

 

Źródłem pochodzenia danych jest Instytut Meteorologii i Gospodarki Wodnej – Państwowy Instytut Badawczy. Dane Instytutu Meteorologii i Gospodarki Wodnej – Państwowego Instytutu Badawczego zostały przetworzone.

Dane źródłowe można odnaleźć na stronie https://dane.imgw.pl